sensor_id;sensor_type;location;lat;lon;timestamp;P1;durP1;ratioP1;P2;durP2;ratioP2
26303;SDS011;57113;48.680;8.890;2023-02-03T00:00:31;2.90;;;1.05;;
26303;SDS011;57113;48.680;8.890;2023-02-03T00:02:57;2.38;;;1.40;;
26303;SDS011;57113;48.680;8.890;2023-02-03T00:05:23;1.58;;;1.05;;
26303;SDS011;57113;48.680;8.890;2023-02-03T00:07:48;1.60;;;1.00;;
26303;SDS011;57113;48.680;8.890;2023-02-03T00:10:15;2.22;;;1.30;;
26303;SDS011;57113;48.680;8.890;2023-02-03T00:12:45;2.28;;;1.13;;
26303;SDS011;57113;48.680;8.890;2023-02-03T00:15:14;1.73;;;1.10;;
26303;SDS011;57113;48.680;8.890;2023-02-03T00:17:40;1.60;;;1.10;;
26303;SDS011;57113;48.680;8.890;2023-02-03T00:20:06;1.85;;;1.00;;
26303;SDS011;57113;48.680;8.890;2023-02-03T00:22:32;1.50;;;1.02;;
26303;SDS011;57113;48.680;8.890;2023-02-03T00:24:57;1.50;;;1.10;;
26303;SDS011;57113;48.680;8.890;2023-02-03T00:27:24;3.63;;;1.45;;
26303;SDS011;57113;48.680;8.890;2023-02-03T00:29:50;1.63;;;1.10;;
26303;SDS011;57113;48.680;8.890;2023-02-03T00:32:15;1.50;;;1.00;;
26303;SDS011;57113;48.680;8.890;2023-02-03T00:34:41;1.50;;;0.90;;
26303;SDS011;57113;48.680;8.890;2023-02-03T00:37:07;1.48;;;1.00;;
26303;SDS011;57113;48.680;8.890;2023-02-03T00:39:34;1.95;;;0.90;;
26303;SDS011;57113;48.680;8.890;2023-02-03T00:42:02;1.35;;;1.10;;
26303;SDS011;57113;48.680;8.890;2023-02-03T00:44:28;1.90;;;0.90;;
26303;SDS011;57113;48.680;8.890;2023-02-03T00:46:54;2.85;;;0.90;;
26303;SDS011;57113;48.680;8.890;2023-02-03T00:49:19;1.80;;;0.90;;
26303;SDS011;57113;48.680;8.890;2023-02-03T00:51:45;1.35;;;0.90;;
26303;SDS011;57113;48.680;8.890;2023-02-03T00:54:11;1.70;;;0.95;;
26303;SDS011;57113;48.680;8.890;2023-02-03T00:56:37;1.20;;;0.85;;
26303;SDS011;57113;48.680;8.890;2023-02-03T00:59:03;0.98;;;0.80;;
26303;SDS011;57113;48.680;8.890;2023-02-03T01:01:29;1.20;;;0.93;;
26303;SDS011;57113;48.680;8.890;2023-02-03T01:03:55;1.38;;;0.98;;
26303;SDS011;57113;48.680;8.890;2023-02-03T01:06:21;2.45;;;0.90;;
26303;SDS011;57113;48.680;8.890;2023-02-03T01:08:47;1.55;;;0.90;;
26303;SDS011;57113;48.680;8.890;2023-02-03T01:11:21;1.92;;;1.10;;
26303;SDS011;57113;48.680;8.890;2023-02-03T01:13:48;1.90;;;1.05;;
26303;SDS011;57113;48.680;8.890;2023-02-03T01:16:16;0.82;;;0.70;;
26303;SDS011;57113;48.680;8.890;2023-02-03T01:18:43;1.40;;;0.80;;
26303;SDS011;57113;48.680;8.890;2023-02-03T01:21:27;1.55;;;0.90;;
26303;SDS011;57113;48.680;8.890;2023-02-03T01:23:53;2.55;;;0.90;;
26303;SDS011;57113;48.680;8.890;2023-02-03T01:26:19;1.52;;;0.77;;
26303;SDS011;57113;48.680;8.890;2023-02-03T01:28:54;2.17;;;0.93;;
26303;SDS011;57113;48.680;8.890;2023-02-03T01:31:26;1.70;;;1.00;;
26303;SDS011;57113;48.680;8.890;2023-02-03T01:34:04;2.13;;;0.90;;
26303;SDS011;57113;48.680;8.890;2023-02-03T01:36:31;2.75;;;0.90;;
26303;SDS011;57113;48.680;8.890;2023-02-03T01:38:58;1.10;;;0.70;;
26303;SDS011;57113;48.680;8.890;2023-02-03T01:41:28;1.90;;;1.00;;
26303;SDS011;57113;48.680;8.890;2023-02-03T01:43:57;1.30;;;0.90;;
26303;SDS011;57113;48.680;8.890;2023-02-03T01:46:43;1.35;;;0.88;;
26303;SDS011;57113;48.680;8.890;2023-02-03T01:49:18;1.60;;;1.05;;
26303;SDS011;57113;48.680;8.890;2023-02-03T01:51:48;1.52;;;0.95;;
26303;SDS011;57113;48.680;8.890;2023-02-03T01:54:16;1.17;;;0.88;;
26303;SDS011;57113;48.680;8.890;2023-02-03T01:56:47;2.30;;;0.95;;
26303;SDS011;57113;48.680;8.890;2023-02-03T01:59:17;1.13;;;0.73;;
26303;SDS011;57113;48.680;8.890;2023-02-03T02:01:45;2.05;;;0.90;;
26303;SDS011;57113;48.680;8.890;2023-02-03T02:04:11;1.60;;;1.00;;
26303;SDS011;57113;48.680;8.890;2023-02-03T02:06:37;1.65;;;1.00;;
26303;SDS011;57113;48.680;8.890;2023-02-03T02:09:02;0.70;;;0.60;;
26303;SDS011;57113;48.680;8.890;2023-02-03T02:11:28;1.58;;;0.85;;
26303;SDS011;57113;48.680;8.890;2023-02-03T02:13:56;1.60;;;0.70;;
26303;SDS011;57113;48.680;8.890;2023-02-03T02:22:16;1.38;;;0.82;;
26303;SDS011;57113;48.680;8.890;2023-02-03T02:30:37;1.02;;;0.60;;
26303;SDS011;57113;48.680;8.890;2023-02-03T02:44:11;1.23;;;0.82;;
26303;SDS011;57113;48.680;8.890;2023-02-03T02:46:53;1.17;;;0.90;;
26303;SDS011;57113;48.680;8.890;2023-02-03T02:49:32;1.42;;;0.80;;
26303;SDS011;57113;48.680;8.890;2023-02-03T02:52:07;1.38;;;0.95;;
26303;SDS011;57113;48.680;8.890;2023-02-03T02:54:34;1.45;;;0.80;;
26303;SDS011;57113;48.680;8.890;2023-02-03T02:57:04;1.17;;;0.75;;
26303;SDS011;57113;48.680;8.890;2023-02-03T02:59:34;2.38;;;0.80;;
26303;SDS011;57113;48.680;8.890;2023-02-03T03:02:00;1.42;;;0.80;;
26303;SDS011;57113;48.680;8.890;2023-02-03T03:04:26;2.35;;;0.98;;
26303;SDS011;57113;48.680;8.890;2023-02-03T03:06:58;2.08;;;0.80;;
26303;SDS011;57113;48.680;8.890;2023-02-03T03:09:32;1.20;;;0.87;;
26303;SDS011;57113;48.680;8.890;2023-02-03T03:12:07;1.65;;;0.88;;
26303;SDS011;57113;48.680;8.890;2023-02-03T03:14:54;0.60;;;0.50;;
26303;SDS011;57113;48.680;8.890;2023-02-03T03:17:32;1.33;;;0.82;;
26303;SDS011;57113;48.680;8.890;2023-02-03T03:20:05;0.75;;;0.52;;
26303;SDS011;57113;48.680;8.890;2023-02-03T03:22:36;1.63;;;0.55;;
26303;SDS011;57113;48.680;8.890;2023-02-03T03:25:08;1.23;;;0.70;;
26303;SDS011;57113;48.680;8.890;2023-02-03T03:27:45;0.57;;;0.57;;
26303;SDS011;57113;48.680;8.890;2023-02-03T03:30:21;2.35;;;1.02;;
26303;SDS011;57113;48.680;8.890;2023-02-03T03:32:50;0.95;;;0.68;;
26303;SDS011;57113;48.680;8.890;2023-02-03T03:35:15;2.47;;;0.80;;
26303;SDS011;57113;48.680;8.890;2023-02-03T03:37:55;1.70;;;0.63;;
26303;SDS011;57113;48.680;8.890;2023-02-03T03:40:28;1.67;;;0.70;;
26303;SDS011;57113;48.680;8.890;2023-02-03T03:42:58;0.90;;;0.50;;
26303;SDS011;57113;48.680;8.890;2023-02-03T03:45:33;0.88;;;0.63;;
26303;SDS011;57113;48.680;8.890;2023-02-03T03:50:48;1.00;;;0.60;;
26303;SDS011;57113;48.680;8.890;2023-02-03T03:53:17;0.93;;;0.60;;
26303;SDS011;57113;48.680;8.890;2023-02-03T03:55:46;0.82;;;0.50;;
26303;SDS011;57113;48.680;8.890;2023-02-03T03:58:15;1.05;;;0.55;;
26303;SDS011;57113;48.680;8.890;2023-02-03T04:00:45;0.60;;;0.60;;
26303;SDS011;57113;48.680;8.890;2023-02-03T04:03:22;1.00;;;0.50;;
26303;SDS011;57113;48.680;8.890;2023-02-03T04:05:52;0.55;;;0.47;;
26303;SDS011;57113;48.680;8.890;2023-02-03T04:08:17;0.80;;;0.52;;
26303;SDS011;57113;48.680;8.890;2023-02-03T04:10:43;0.98;;;0.68;;
26303;SDS011;57113;48.680;8.890;2023-02-03T04:13:09;0.93;;;0.60;;
26303;SDS011;57113;48.680;8.890;2023-02-03T04:15:36;0.90;;;0.77;;
26303;SDS011;57113;48.680;8.890;2023-02-03T04:18:02;0.85;;;0.47;;
26303;SDS011;57113;48.680;8.890;2023-02-03T04:20:29;0.90;;;0.60;;
26303;SDS011;57113;48.680;8.890;2023-02-03T04:22:55;0.47;;;0.40;;
26303;SDS011;57113;48.680;8.890;2023-02-03T04:25:22;1.30;;;0.60;;
26303;SDS011;57113;48.680;8.890;2023-02-03T04:27:48;1.05;;;0.57;;
26303;SDS011;57113;48.680;8.890;2023-02-03T04:30:13;0.82;;;0.57;;
26303;SDS011;57113;48.680;8.890;2023-02-03T04:32:39;0.50;;;0.50;;
26303;SDS011;57113;48.680;8.890;2023-02-03T04:35:05;1.48;;;0.60;;
26303;SDS011;57113;48.680;8.890;2023-02-03T04:37:32;0.98;;;0.50;;
26303;SDS011;57113;48.680;8.890;2023-02-03T04:39:58;1.20;;;0.60;;
26303;SDS011;57113;48.680;8.890;2023-02-03T04:42:23;0.43;;;0.40;;
26303;SDS011;57113;48.680;8.890;2023-02-03T04:44:49;1.08;;;0.47;;
26303;SDS011;57113;48.680;8.890;2023-02-03T04:47:15;0.60;;;0.50;;
26303;SDS011;57113;48.680;8.890;2023-02-03T04:49:42;1.05;;;0.50;;
26303;SDS011;57113;48.680;8.890;2023-02-03T04:52:07;0.60;;;0.60;;
26303;SDS011;57113;48.680;8.890;2023-02-03T04:54:33;0.90;;;0.60;;
26303;SDS011;57113;48.680;8.890;2023-02-03T04:57:00;0.68;;;0.40;;
26303;SDS011;57113;48.680;8.890;2023-02-03T04:59:26;0.50;;;0.50;;
26303;SDS011;57113;48.680;8.890;2023-02-03T05:01:51;1.73;;;0.68;;
26303;SDS011;57113;48.680;8.890;2023-02-03T05:04:17;0.60;;;0.50;;
26303;SDS011;57113;48.680;8.890;2023-02-03T05:06:43;0.70;;;0.50;;
26303;SDS011;57113;48.680;8.890;2023-02-03T05:09:09;0.70;;;0.60;;
26303;SDS011;57113;48.680;8.890;2023-02-03T05:11:34;0.50;;;0.50;;
26303;SDS011;57113;48.680;8.890;2023-02-03T05:14:00;0.57;;;0.50;;
26303;SDS011;57113;48.680;8.890;2023-02-03T05:16:25;0.60;;;0.45;;
26303;SDS011;57113;48.680;8.890;2023-02-03T05:18:52;0.38;;;0.38;;
26303;SDS011;57113;48.680;8.890;2023-02-03T05:21:18;1.02;;;0.60;;
26303;SDS011;57113;48.680;8.890;2023-02-03T05:23:44;1.33;;;0.50;;
26303;SDS011;57113;48.680;8.890;2023-02-03T05:26:10;0.55;;;0.40;;
26303;SDS011;57113;48.680;8.890;2023-02-03T05:28:36;0.95;;;0.50;;
26303;SDS011;57113;48.680;8.890;2023-02-03T05:31:02;0.55;;;0.50;;
26303;SDS011;57113;48.680;8.890;2023-02-03T05:33:28;0.82;;;0.50;;
26303;SDS011;57113;48.680;8.890;2023-02-03T05:35:54;0.90;;;0.50;;
26303;SDS011;57113;48.680;8.890;2023-02-03T05:38:20;0.73;;;0.55;;
26303;SDS011;57113;48.680;8.890;2023-02-03T05:40:46;0.75;;;0.50;;
26303;SDS011;57113;48.680;8.890;2023-02-03T05:43:31;0.70;;;0.50;;
26303;SDS011;57113;48.680;8.890;2023-02-03T05:46:00;0.73;;;0.50;;
26303;SDS011;57113;48.680;8.890;2023-02-03T05:48:26;1.20;;;0.60;;
26303;SDS011;57113;48.680;8.890;2023-02-03T05:50:52;1.30;;;0.68;;
26303;SDS011;57113;48.680;8.890;2023-02-03T05:53:18;0.68;;;0.40;;
26303;SDS011;57113;48.680;8.890;2023-02-03T05:55:43;0.63;;;0.50;;
26303;SDS011;57113;48.680;8.890;2023-02-03T05:58:09;2.55;;;0.70;;
26303;SDS011;57113;48.680;8.890;2023-02-03T06:00:35;0.98;;;0.60;;
26303;SDS011;57113;48.680;8.890;2023-02-03T06:03:00;0.77;;;0.50;;
26303;SDS011;57113;48.680;8.890;2023-02-03T06:05:27;0.63;;;0.50;;
26303;SDS011;57113;48.680;8.890;2023-02-03T06:07:54;0.55;;;0.45;;
26303;SDS011;57113;48.680;8.890;2023-02-03T06:10:19;0.60;;;0.50;;
26303;SDS011;57113;48.680;8.890;2023-02-03T06:12:46;1.40;;;0.75;;
26303;SDS011;57113;48.680;8.890;2023-02-03T06:15:12;0.68;;;0.50;;
26303;SDS011;57113;48.680;8.890;2023-02-03T06:17:38;1.00;;;0.60;;
26303;SDS011;57113;48.680;8.890;2023-02-03T06:20:04;0.93;;;0.68;;
26303;SDS011;57113;48.680;8.890;2023-02-03T06:22:31;2.42;;;0.70;;
26303;SDS011;57113;48.680;8.890;2023-02-03T06:24:57;0.80;;;0.63;;
26303;SDS011;57113;48.680;8.890;2023-02-03T06:27:23;0.93;;;0.70;;
26303;SDS011;57113;48.680;8.890;2023-02-03T06:29:48;1.40;;;0.50;;
26303;SDS011;57113;48.680;8.890;2023-02-03T06:32:14;0.85;;;0.55;;
26303;SDS011;57113;48.680;8.890;2023-02-03T06:34:40;0.70;;;0.43;;
26303;SDS011;57113;48.680;8.890;2023-02-03T06:37:06;1.80;;;0.70;;
26303;SDS011;57113;48.680;8.890;2023-02-03T06:39:31;0.88;;;0.50;;
26303;SDS011;57113;48.680;8.890;2023-02-03T06:41:57;0.50;;;0.50;;
26303;SDS011;57113;48.680;8.890;2023-02-03T06:44:22;0.65;;;0.55;;
26303;SDS011;57113;48.680;8.890;2023-02-03T06:46:48;2.70;;;0.43;;
26303;SDS011;57113;48.680;8.890;2023-02-03T06:49:15;0.70;;;0.55;;
26303;SDS011;57113;48.680;8.890;2023-02-03T06:51:44;0.73;;;0.52;;
26303;SDS011;57113;48.680;8.890;2023-02-03T06:54:10;1.13;;;0.50;;
26303;SDS011;57113;48.680;8.890;2023-02-03T06:56:36;2.63;;;0.70;;
26303;SDS011;57113;48.680;8.890;2023-02-03T06:59:02;1.15;;;0.68;;
26303;SDS011;57113;48.680;8.890;2023-02-03T07:01:28;0.57;;;0.55;;
26303;SDS011;57113;48.680;8.890;2023-02-03T07:03:55;0.95;;;0.52;;
26303;SDS011;57113;48.680;8.890;2023-02-03T07:06:24;1.30;;;0.60;;
26303;SDS011;57113;48.680;8.890;2023-02-03T07:08:55;2.20;;;0.60;;
26303;SDS011;57113;48.680;8.890;2023-02-03T07:11:21;0.77;;;0.60;;
26303;SDS011;57113;48.680;8.890;2023-02-03T07:13:47;0.75;;;0.50;;
26303;SDS011;57113;48.680;8.890;2023-02-03T07:16:13;1.00;;;0.63;;
26303;SDS011;57113;48.680;8.890;2023-02-03T07:18:39;0.50;;;0.50;;
26303;SDS011;57113;48.680;8.890;2023-02-03T07:21:05;0.50;;;0.50;;
26303;SDS011;57113;48.680;8.890;2023-02-03T07:23:31;1.20;;;0.70;;
26303;SDS011;57113;48.680;8.890;2023-02-03T07:26:00;1.50;;;0.60;;
26303;SDS011;57113;48.680;8.890;2023-02-03T07:28:28;0.75;;;0.60;;
26303;SDS011;57113;48.680;8.890;2023-02-03T07:30:55;1.55;;;0.85;;
26303;SDS011;57113;48.680;8.890;2023-02-03T07:33:21;1.25;;;0.70;;
26303;SDS011;57113;48.680;8.890;2023-02-03T07:35:50;1.13;;;0.68;;
26303;SDS011;57113;48.680;8.890;2023-02-03T07:38:16;1.55;;;0.63;;
26303;SDS011;57113;48.680;8.890;2023-02-03T07:40:42;0.75;;;0.60;;
26303;SDS011;57113;48.680;8.890;2023-02-03T07:43:08;0.75;;;0.63;;
26303;SDS011;57113;48.680;8.890;2023-02-03T07:45:33;1.50;;;0.90;;
26303;SDS011;57113;48.680;8.890;2023-02-03T07:47:59;1.15;;;0.80;;
26303;SDS011;57113;48.680;8.890;2023-02-03T07:50:24;2.13;;;0.80;;
26303;SDS011;57113;48.680;8.890;2023-02-03T07:52:50;0.90;;;0.70;;
26303;SDS011;57113;48.680;8.890;2023-02-03T07:55:17;1.10;;;0.80;;
26303;SDS011;57113;48.680;8.890;2023-02-03T07:57:43;1.50;;;0.68;;
26303;SDS011;57113;48.680;8.890;2023-02-03T08:00:12;1.65;;;0.90;;
26303;SDS011;57113;48.680;8.890;2023-02-03T08:02:43;0.75;;;0.75;;
26303;SDS011;57113;48.680;8.890;2023-02-03T08:05:09;1.88;;;1.00;;
26303;SDS011;57113;48.680;8.890;2023-02-03T08:07:35;1.75;;;0.88;;
26303;SDS011;57113;48.680;8.890;2023-02-03T08:10:01;1.65;;;0.80;;
26303;SDS011;57113;48.680;8.890;2023-02-03T08:12:27;0.63;;;0.60;;
26303;SDS011;57113;48.680;8.890;2023-02-03T08:14:52;1.80;;;0.80;;
26303;SDS011;57113;48.680;8.890;2023-02-03T08:17:18;2.47;;;0.70;;
26303;SDS011;57113;48.680;8.890;2023-02-03T08:19:43;0.65;;;0.60;;
26303;SDS011;57113;48.680;8.890;2023-02-03T08:22:09;1.83;;;0.90;;
26303;SDS011;57113;48.680;8.890;2023-02-03T08:24:43;2.08;;;1.10;;
26303;SDS011;57113;48.680;8.890;2023-02-03T08:27:10;2.03;;;1.20;;
26303;SDS011;57113;48.680;8.890;2023-02-03T08:29:37;3.10;;;1.20;;
26303;SDS011;57113;48.680;8.890;2023-02-03T08:32:03;2.17;;;1.25;;
26303;SDS011;57113;48.680;8.890;2023-02-03T08:34:29;1.92;;;0.93;;
26303;SDS011;57113;48.680;8.890;2023-02-03T08:36:54;2.10;;;1.25;;
26303;SDS011;57113;48.680;8.890;2023-02-03T08:39:20;1.23;;;1.02;;
26303;SDS011;57113;48.680;8.890;2023-02-03T08:41:46;3.95;;;1.27;;
26303;SDS011;57113;48.680;8.890;2023-02-03T08:44:12;2.90;;;1.23;;
26303;SDS011;57113;48.680;8.890;2023-02-03T08:46:38;3.40;;;1.35;;
26303;SDS011;57113;48.680;8.890;2023-02-03T08:49:08;2.65;;;1.48;;
26303;SDS011;57113;48.680;8.890;2023-02-03T08:51:34;2.25;;;1.40;;
26303;SDS011;57113;48.680;8.890;2023-02-03T08:54:00;4.05;;;1.30;;
26303;SDS011;57113;48.680;8.890;2023-02-03T08:56:26;2.13;;;1.40;;
26303;SDS011;57113;48.680;8.890;2023-02-03T08:58:52;2.25;;;1.30;;
26303;SDS011;57113;48.680;8.890;2023-02-03T09:01:18;2.40;;;0.93;;
26303;SDS011;57113;48.680;8.890;2023-02-03T09:03:44;1.95;;;1.30;;
26303;SDS011;57113;48.680;8.890;2023-02-03T09:06:10;2.05;;;1.20;;
26303;SDS011;57113;48.680;8.890;2023-02-03T09:08:40;1.50;;;1.10;;
26303;SDS011;57113;48.680;8.890;2023-02-03T09:11:10;1.60;;;1.30;;
26303;SDS011;57113;48.680;8.890;2023-02-03T09:13:37;2.38;;;1.02;;
26303;SDS011;57113;48.680;8.890;2023-02-03T09:16:04;1.75;;;1.15;;
26303;SDS011;57113;48.680;8.890;2023-02-03T09:18:31;1.73;;;1.10;;
26303;SDS011;57113;48.680;8.890;2023-02-03T09:21:00;2.08;;;1.20;;
26303;SDS011;57113;48.680;8.890;2023-02-03T09:23:27;1.42;;;1.10;;
26303;SDS011;57113;48.680;8.890;2023-02-03T09:25:52;1.95;;;1.30;;
26303;SDS011;57113;48.680;8.890;2023-02-03T09:28:18;2.20;;;1.15;;
26303;SDS011;57113;48.680;8.890;2023-02-03T09:30:43;1.77;;;1.10;;
26303;SDS011;57113;48.680;8.890;2023-02-03T09:33:10;2.00;;;1.20;;
26303;SDS011;57113;48.680;8.890;2023-02-03T09:35:36;1.70;;;1.00;;
26303;SDS011;57113;48.680;8.890;2023-02-03T09:38:03;1.45;;;1.00;;
26303;SDS011;57113;48.680;8.890;2023-02-03T09:40:37;1.25;;;0.90;;
26303;SDS011;57113;48.680;8.890;2023-02-03T09:45:34;2.70;;;1.08;;
26303;SDS011;57113;48.680;8.890;2023-02-03T09:48:04;1.63;;;1.00;;
26303;SDS011;57113;48.680;8.890;2023-02-03T09:50:34;2.00;;;1.20;;
26303;SDS011;57113;48.680;8.890;2023-02-03T09:53:05;1.30;;;0.90;;
26303;SDS011;57113;48.680;8.890;2023-02-03T09:55:39;1.45;;;1.00;;
26303;SDS011;57113;48.680;8.890;2023-02-03T10:00:40;2.00;;;1.20;;
26303;SDS011;57113;48.680;8.890;2023-02-03T10:08:47;2.25;;;1.02;;
26303;SDS011;57113;48.680;8.890;2023-02-03T10:14:37;1.50;;;1.10;;
26303;SDS011;57113;48.680;8.890;2023-02-03T10:17:18;1.60;;;1.17;;
26303;SDS011;57113;48.680;8.890;2023-02-03T10:22:17;1.88;;;0.90;;
26303;SDS011;57113;48.680;8.890;2023-02-03T10:27:21;1.50;;;1.00;;
26303;SDS011;57113;48.680;8.890;2023-02-03T10:30:15;2.67;;;1.05;;
26303;SDS011;57113;48.680;8.890;2023-02-03T10:32:48;1.13;;;0.88;;
26303;SDS011;57113;48.680;8.890;2023-02-03T10:35:21;1.63;;;0.93;;
26303;SDS011;57113;48.680;8.890;2023-02-03T10:37:57;1.13;;;0.90;;
26303;SDS011;57113;48.680;8.890;2023-02-03T10:40:24;3.08;;;1.23;;
26303;SDS011;57113;48.680;8.890;2023-02-03T10:42:53;1.35;;;0.85;;
26303;SDS011;57113;48.680;8.890;2023-02-03T10:45:38;2.33;;;0.90;;
26303;SDS011;57113;48.680;8.890;2023-02-03T10:48:05;1.83;;;0.90;;
26303;SDS011;57113;48.680;8.890;2023-02-03T10:50:35;1.88;;;1.00;;
26303;SDS011;57113;48.680;8.890;2023-02-03T10:55:51;1.60;;;0.88;;
26303;SDS011;57113;48.680;8.890;2023-02-03T10:58:25;1.20;;;0.80;;
26303;SDS011;57113;48.680;8.890;2023-02-03T11:01:11;1.13;;;0.80;;
26303;SDS011;57113;48.680;8.890;2023-02-03T11:03:43;1.23;;;0.90;;
26303;SDS011;57113;48.680;8.890;2023-02-03T11:06:27;1.25;;;0.95;;
26303;SDS011;57113;48.680;8.890;2023-02-03T11:08:54;1.55;;;0.85;;
26303;SDS011;57113;48.680;8.890;2023-02-03T11:11:27;1.75;;;1.00;;
26303;SDS011;57113;48.680;8.890;2023-02-03T11:16:26;1.60;;;0.80;;
26303;SDS011;57113;48.680;8.890;2023-02-03T11:21:21;2.03;;;1.10;;
26303;SDS011;57113;48.680;8.890;2023-02-03T11:23:54;1.20;;;0.90;;
26303;SDS011;57113;48.680;8.890;2023-02-03T11:26:23;1.98;;;0.90;;
26303;SDS011;57113;48.680;8.890;2023-02-03T11:29:01;1.20;;;0.90;;
26303;SDS011;57113;48.680;8.890;2023-02-03T11:31:31;1.65;;;1.00;;
26303;SDS011;57113;48.680;8.890;2023-02-03T11:33:59;1.10;;;1.00;;
26303;SDS011;57113;48.680;8.890;2023-02-03T11:36:31;2.20;;;1.00;;
26303;SDS011;57113;48.680;8.890;2023-02-03T11:41:44;1.50;;;1.10;;
26303;SDS011;57113;48.680;8.890;2023-02-03T11:44:15;1.20;;;1.00;;
26303;SDS011;57113;48.680;8.890;2023-02-03T11:46:41;0.95;;;0.75;;
26303;SDS011;57113;48.680;8.890;2023-02-03T11:49:16;1.40;;;0.90;;
26303;SDS011;57113;48.680;8.890;2023-02-03T11:52:17;2.25;;;1.10;;
26303;SDS011;57113;48.680;8.890;2023-02-03T12:09:19;3.60;;;1.15;;
26303;SDS011;57113;48.680;8.890;2023-02-03T12:20:12;4.50;;;1.10;;
26303;SDS011;57113;48.680;8.890;2023-02-03T12:30:54;1.40;;;0.90;;
26303;SDS011;57113;48.680;8.890;2023-02-03T12:36:17;3.28;;;0.98;;
26303;SDS011;57113;48.680;8.890;2023-02-03T12:41:24;1.50;;;0.90;;
26303;SDS011;57113;48.680;8.890;2023-02-03T12:43:54;1.17;;;0.82;;
26303;SDS011;57113;48.680;8.890;2023-02-03T12:51:55;1.35;;;0.65;;
26303;SDS011;57113;48.680;8.890;2023-02-03T12:57:33;1.65;;;1.00;;
26303;SDS011;57113;48.680;8.890;2023-02-03T13:00:17;1.40;;;0.80;;
26303;SDS011;57113;48.680;8.890;2023-02-03T13:03:12;1.88;;;1.08;;
26303;SDS011;57113;48.680;8.890;2023-02-03T13:06:03;1.77;;;1.25;;
26303;SDS011;57113;48.680;8.890;2023-02-03T13:11:39;1.88;;;0.93;;
26303;SDS011;57113;48.680;8.890;2023-02-03T13:14:31;2.03;;;0.80;;
26303;SDS011;57113;48.680;8.890;2023-02-03T13:19:35;3.10;;;1.00;;
26303;SDS011;57113;48.680;8.890;2023-02-03T13:22:14;1.75;;;0.90;;
26303;SDS011;57113;48.680;8.890;2023-02-03T13:24:46;1.25;;;0.70;;
26303;SDS011;57113;48.680;8.890;2023-02-03T13:30:15;1.00;;;0.82;;
26303;SDS011;57113;48.680;8.890;2023-02-03T13:35:53;1.35;;;0.90;;
26303;SDS011;57113;48.680;8.890;2023-02-03T13:38:55;1.77;;;0.90;;
26303;SDS011;57113;48.680;8.890;2023-02-03T13:42:10;1.23;;;0.80;;
26303;SDS011;57113;48.680;8.890;2023-02-03T13:44:38;1.98;;;1.10;;
26303;SDS011;57113;48.680;8.890;2023-02-03T13:47:05;1.52;;;0.85;;
26303;SDS011;57113;48.680;8.890;2023-02-03T13:49:43;2.50;;;0.90;;
26303;SDS011;57113;48.680;8.890;2023-02-03T13:54:57;2.13;;;1.03;;
26303;SDS011;57113;48.680;8.890;2023-02-03T14:00:00;1.55;;;1.00;;
26303;SDS011;57113;48.680;8.890;2023-02-03T14:02:40;2.47;;;0.98;;
26303;SDS011;57113;48.680;8.890;2023-02-03T14:05:19;1.60;;;1.00;;
26303;SDS011;57113;48.680;8.890;2023-02-03T14:16:36;0.65;;;0.60;;
26303;SDS011;57113;48.680;8.890;2023-02-03T14:22:08;2.88;;;0.80;;
26303;SDS011;57113;48.680;8.890;2023-02-03T14:24:42;3.42;;;1.13;;
26303;SDS011;57113;48.680;8.890;2023-02-03T14:27:17;3.35;;;0.90;;
26303;SDS011;57113;48.680;8.890;2023-02-03T14:29:45;2.22;;;1.30;;
26303;SDS011;57113;48.680;8.890;2023-02-03T14:32:49;3.88;;;1.20;;
26303;SDS011;57113;48.680;8.890;2023-02-03T14:35:24;1.63;;;0.93;;
26303;SDS011;57113;48.680;8.890;2023-02-03T14:37:57;1.70;;;1.17;;
26303;SDS011;57113;48.680;8.890;2023-02-03T14:48:21;2.60;;;1.13;;
26303;SDS011;57113;48.680;8.890;2023-02-03T14:51:15;1.50;;;0.90;;
26303;SDS011;57113;48.680;8.890;2023-02-03T14:54:19;1.50;;;1.02;;
26303;SDS011;57113;48.680;8.890;2023-02-03T14:59:47;1.98;;;1.00;;
26303;SDS011;57113;48.680;8.890;2023-02-03T15:04:51;1.38;;;0.85;;
26303;SDS011;57113;48.680;8.890;2023-02-03T15:10:16;1.27;;;1.08;;
26303;SDS011;57113;48.680;8.890;2023-02-03T15:12:47;1.38;;;1.02;;
26303;SDS011;57113;48.680;8.890;2023-02-03T15:15:18;1.63;;;1.13;;
26303;SDS011;57113;48.680;8.890;2023-02-03T15:17:47;2.40;;;1.17;;
26303;SDS011;57113;48.680;8.890;2023-02-03T15:26:10;2.08;;;1.08;;
26303;SDS011;57113;48.680;8.890;2023-02-03T15:28:37;1.90;;;1.17;;
26303;SDS011;57113;48.680;8.890;2023-02-03T15:31:15;2.05;;;0.95;;
26303;SDS011;57113;48.680;8.890;2023-02-03T15:33:47;2.05;;;0.98;;
26303;SDS011;57113;48.680;8.890;2023-02-03T15:36:16;1.42;;;0.95;;
26303;SDS011;57113;48.680;8.890;2023-02-03T15:38:46;1.98;;;1.05;;
26303;SDS011;57113;48.680;8.890;2023-02-03T15:41:18;1.73;;;1.10;;
26303;SDS011;57113;48.680;8.890;2023-02-03T15:43:47;1.75;;;0.88;;
26303;SDS011;57113;48.680;8.890;2023-02-03T15:46:18;1.38;;;0.80;;
26303;SDS011;57113;48.680;8.890;2023-02-03T15:49:06;1.52;;;1.00;;
26303;SDS011;57113;48.680;8.890;2023-02-03T15:54:03;1.23;;;0.82;;
26303;SDS011;57113;48.680;8.890;2023-02-03T15:56:38;1.77;;;1.10;;
26303;SDS011;57113;48.680;8.890;2023-02-03T16:04:45;1.67;;;0.98;;
26303;SDS011;57113;48.680;8.890;2023-02-03T16:07:18;1.13;;;0.90;;
26303;SDS011;57113;48.680;8.890;2023-02-03T16:09:50;1.80;;;1.13;;
26303;SDS011;57113;48.680;8.890;2023-02-03T16:14:54;1.13;;;0.80;;
26303;SDS011;57113;48.680;8.890;2023-02-03T16:23:20;1.02;;;0.80;;
26303;SDS011;57113;48.680;8.890;2023-02-03T16:25:28;1.67;;;0.80;;
26303;SDS011;57113;48.680;8.890;2023-02-03T16:30:55;1.30;;;0.95;;
26303;SDS011;57113;48.680;8.890;2023-02-03T16:33:52;1.48;;;1.05;;
26303;SDS011;57113;48.680;8.890;2023-02-03T16:36:41;1.13;;;0.90;;
26303;SDS011;57113;48.680;8.890;2023-02-03T16:39:26;1.27;;;0.80;;
26303;SDS011;57113;48.680;8.890;2023-02-03T16:42:15;1.00;;;0.90;;
26303;SDS011;57113;48.680;8.890;2023-02-03T16:45:01;1.17;;;0.80;;
26303;SDS011;57113;48.680;8.890;2023-02-03T16:47:46;1.70;;;1.00;;
26303;SDS011;57113;48.680;8.890;2023-02-03T16:50:30;1.05;;;0.93;;
26303;SDS011;57113;48.680;8.890;2023-02-03T16:53:21;1.35;;;1.00;;
26303;SDS011;57113;48.680;8.890;2023-02-03T16:55:49;3.20;;;1.10;;
26303;SDS011;57113;48.680;8.890;2023-02-03T16:58:16;1.63;;;1.00;;
26303;SDS011;57113;48.680;8.890;2023-02-03T17:00:43;1.30;;;1.00;;
26303;SDS011;57113;48.680;8.890;2023-02-03T17:03:11;1.60;;;1.00;;
26303;SDS011;57113;48.680;8.890;2023-02-03T17:05:39;1.52;;;0.85;;
26303;SDS011;57113;48.680;8.890;2023-02-03T17:08:06;1.65;;;0.90;;
26303;SDS011;57113;48.680;8.890;2023-02-03T17:10:35;1.17;;;0.90;;
26303;SDS011;57113;48.680;8.890;2023-02-03T17:13:02;1.20;;;0.82;;
26303;SDS011;57113;48.680;8.890;2023-02-03T17:15:29;2.17;;;1.00;;
26303;SDS011;57113;48.680;8.890;2023-02-03T17:17:54;2.22;;;1.00;;
26303;SDS011;57113;48.680;8.890;2023-02-03T17:20:21;1.10;;;0.80;;
26303;SDS011;57113;48.680;8.890;2023-02-03T17:22:47;1.73;;;0.95;;
26303;SDS011;57113;48.680;8.890;2023-02-03T17:25:15;1.10;;;0.90;;
26303;SDS011;57113;48.680;8.890;2023-02-03T17:27:41;1.48;;;1.08;;
26303;SDS011;57113;48.680;8.890;2023-02-03T17:30:07;1.33;;;1.08;;
26303;SDS011;57113;48.680;8.890;2023-02-03T17:32:33;1.83;;;0.93;;
26303;SDS011;57113;48.680;8.890;2023-02-03T17:34:59;2.40;;;1.00;;
26303;SDS011;57113;48.680;8.890;2023-02-03T17:37:24;1.38;;;1.08;;
26303;SDS011;57113;48.680;8.890;2023-02-03T17:39:50;2.10;;;0.98;;
26303;SDS011;57113;48.680;8.890;2023-02-03T17:42:15;2.97;;;1.08;;
26303;SDS011;57113;48.680;8.890;2023-02-03T17:44:41;1.50;;;0.90;;
26303;SDS011;57113;48.680;8.890;2023-02-03T17:47:07;2.22;;;1.17;;
26303;SDS011;57113;48.680;8.890;2023-02-03T17:49:32;2.22;;;1.30;;
26303;SDS011;57113;48.680;8.890;2023-02-03T17:51:58;2.00;;;1.30;;
26303;SDS011;57113;48.680;8.890;2023-02-03T17:54:24;1.33;;;0.95;;